createdAt,value
2023-03-26T00:12:13.207Z,11.03
2023-03-26T00:27:14.905Z,9.63
2023-03-26T00:42:16.777Z,9.70
2023-03-26T00:57:34.519Z,9.20
2023-03-26T01:12:37.146Z,8.57
2023-03-26T01:27:50.395Z,9.87
2023-03-26T01:42:59.237Z,8.90
2023-03-26T01:58:18.066Z,9.37
2023-03-26T02:13:20.438Z,8.70
2023-03-26T02:28:22.551Z,9.70
2023-03-26T02:43:24.320Z,9.40
2023-03-26T02:58:27.410Z,8.93
2023-03-26T03:13:29.579Z,9.47
2023-03-26T03:28:31.275Z,9.20
2023-03-26T03:43:33.235Z,10.33
2023-03-26T03:58:34.994Z,8.63
2023-03-26T04:13:37.216Z,8.60
2023-03-26T04:28:55.291Z,7.73
2023-03-26T04:43:56.987Z,8.47
2023-03-26T04:59:00.998Z,9.30
2023-03-26T05:14:03.101Z,8.23
2023-03-26T05:29:05.364Z,8.57
2023-03-26T05:44:07.139Z,7.70
2023-03-26T05:59:08.994Z,8.43
2023-03-26T06:14:10.737Z,9.53
2023-03-26T06:29:13.802Z,9.50
2023-03-26T06:44:15.455Z,9.47
2023-03-26T06:59:17.102Z,10.13
2023-03-26T07:14:18.837Z,11.90
2023-03-26T07:29:23.073Z,12.07
2023-03-26T07:44:37.127Z,13.67
2023-03-26T07:59:49.178Z,14.30
2023-03-26T08:15:12.589Z,13.43
2023-03-26T08:30:22.031Z,14.40
2023-03-26T08:45:41.808Z,13.53
2023-03-26T09:01:00.629Z,14.40
2023-03-26T09:31:12.913Z,14.80
2023-03-26T09:46:30.279Z,15.87
2023-03-26T10:02:15.997Z,17.10
2023-03-26T10:17:26.481Z,19.00
2023-03-26T10:32:38.108Z,16.10
2023-03-26T10:47:54.215Z,19.67
2023-03-26T11:03:14.652Z,19.90
2023-03-26T11:18:16.370Z,20.70
2023-03-26T11:33:24.808Z,21.37
2023-03-26T11:48:32.686Z,22.43
2023-03-26T12:03:34.379Z,26.33
2023-03-26T12:18:38.280Z,24.03
2023-03-26T12:33:40.619Z,24.90
2023-03-26T12:48:42.450Z,25.10
2023-03-26T13:04:18.459Z,23.20
2023-03-26T13:19:59.647Z,23.20
2023-03-26T13:35:32.337Z,23.27
2023-03-26T13:50:38.803Z,26.80
2023-03-26T14:05:46.774Z,22.13
2023-03-26T14:20:51.736Z,23.13
2023-03-26T14:51:13.719Z,18.67
2023-03-26T15:06:27.367Z,23.80
2023-03-26T15:22:04.404Z,18.43
2023-03-26T15:37:05.996Z,21.70
2023-03-26T15:52:22.554Z,24.13
2023-03-26T16:07:47.302Z,17.77
2023-03-26T16:23:07.002Z,17.93
2023-03-26T16:38:15.319Z,17.27
2023-03-26T16:53:23.261Z,19.47
2023-03-26T17:08:42.657Z,16.50
2023-03-26T17:24:19.917Z,17.03
2023-03-26T17:39:43.448Z,15.47
2023-03-26T17:54:51.309Z,15.73
2023-03-26T18:10:12.919Z,18.10
2023-03-26T18:25:27.186Z,15.23
2023-03-26T18:40:50.397Z,13.03
2023-03-26T18:55:52.631Z,11.73
2023-03-26T19:10:55.296Z,16.63
2023-03-26T19:26:00.152Z,10.93
2023-03-26T19:41:01.827Z,12.10
2023-03-26T19:56:13.301Z,13.27
2023-03-26T20:11:33.315Z,11.70
2023-03-26T20:26:34.955Z,10.47
2023-03-26T20:41:43.336Z,12.93
2023-03-26T20:56:45.717Z,11.90
2023-03-26T21:12:05.620Z,12.63
2023-03-26T21:27:36.173Z,10.23
2023-03-26T21:42:38.023Z,10.60
2023-03-26T21:57:54.852Z,11.83
2023-03-26T22:12:56.880Z,8.17
2023-03-26T22:27:58.888Z,11.30
2023-03-26T22:43:00.706Z,10.83
2023-03-26T23:13:04.153Z,8.60
2023-03-26T23:43:07.586Z,8.53
2023-03-26T23:58:09.205Z,8.57
